Time;durP1;ratioP1;P1;durP2;ratioP2;P2;SDS_P1;SDS_P2;PMS_P1;PMS_P2;Temp;Humidity;BMP_temperature;BMP_pressure;BME280_temperature;BME280_humidity;BME280_pressure;Samples;Min_cycle;Max_cycle;Signal;HPM_P1;HPM_P2
2022/11/22 00:00:57;;;;;;;27.80;17.98;;;;;;;11.15;67.84;99272.59;5078214;28;20420;-77
2022/11/22 00:03:42;;;;;;;29.73;16.52;;;;;;;11.14;67.71;99268.28;5073479;28;20051;-75
2022/11/22 00:06:26;;;;;;;31.75;17.42;;;;;;;11.10;67.66;99268.22;5075274;28;20052;-77
2022/11/22 00:09:11;;;;;;;26.73;17.55;;;;;;;11.15;67.54;99265.22;5078658;28;20093;-76
2022/11/22 00:11:56;;;;;;;25.52;14.68;;;;;;;11.01;67.66;99247.78;5070904;28;20055;-77
2022/11/22 00:14:41;;;;;;;;;;;;;;;11.03;67.97;99235.41;5074594;28;20417;-77
2022/11/22 00:17:25;;;;;;;30.90;18.42;;;;;;;10.92;68.68;99233.59;5072537;28;19920;-75
2022/11/22 00:20:10;;;;;;;24.42;14.07;;;;;;;10.99;68.34;99225.56;5076449;28;20063;-78
2022/11/22 00:22:57;;;;;;;22.25;13.15;;;;;;;10.96;68.67;99218.94;5074235;28;20059;-76
2022/11/22 00:25:42;;;;;;;28.80;18.10;;;;;;;10.96;68.36;99208.06;5078773;28;20046;-76
2022/11/22 00:28:26;;;;;;;31.33;17.30;;;;;;;10.94;68.62;99198.66;5073963;28;20153;-77
2022/11/22 00:31:11;;;;;;;25.30;13.57;;;;;;;11.04;68.04;99198.09;5074902;28;20067;-77
2022/11/22 00:33:56;;;;;;;23.50;14.65;;;;;;;10.98;68.71;99197.59;5067289;28;20416;-76
2022/11/22 00:36:40;;;;;;;28.25;18.35;;;;;;;10.99;68.16;99188.28;5074603;28;20516;-79
2022/11/22 00:39:25;;;;;;;30.42;18.15;;;;;;;11.02;68.32;99184.84;5073996;28;20055;-76
2022/11/22 00:42:10;;;;;;;20.73;13.93;;;;;;;11.02;68.19;99184.09;5072812;28;20048;-76
2022/11/22 00:44:54;;;;;;;30.05;18.92;;;;;;;10.99;68.44;99176.63;5076926;28;20047;-76
2022/11/22 00:47:39;;;;;;;23.80;15.40;;;;;;;10.96;68.65;99169.97;5073501;28;20052;-77
2022/11/22 00:50:24;;;;;;;32.15;20.42;;;;;;;10.91;69.02;99164.81;5073145;28;20047;-75
2022/11/22 00:53:08;;;;;;;31.00;19.20;;;;;;;11.02;68.92;99156.88;5072606;28;20051;-75
2022/11/22 00:55:53;;;;;;;;;;;;;;;11.09;68.10;99146.94;5075891;28;20052;-75
2022/11/22 00:58:38;;;;;;;28.73;17.33;;;;;;;11.18;68.24;99148.63;5075565;28;19916;-77
2022/11/22 01:01:22;;;;;;;32.60;20.25;;;;;;;11.20;67.75;99135.47;5073983;28;20176;-76
2022/11/22 01:04:07;;;;;;;;;;;;;;;11.06;68.37;99119.66;5072949;28;20040;-77
2022/11/22 01:06:52;;;;;;;26.35;17.98;;;;;;;10.92;68.75;99120.13;5073264;28;19912;-75
2022/11/22 01:09:36;;;;;;;25.42;16.90;;;;;;;10.92;68.60;99103.81;5073331;28;20043;-78
2022/11/22 01:12:21;;;;;;;;;;;;;;;10.95;68.35;99094.97;5075400;28;20055;-77
2022/11/22 01:15:06;;;;;;;30.05;18.63;;;;;;;10.97;68.53;99089.94;5073404;28;19912;-76
2022/11/22 01:17:50;;;;;;;24.05;15.57;;;;;;;11.01;68.48;99095.47;5077337;28;20047;-77
2022/11/22 01:20:35;;;;;;;30.40;17.27;;;;;;;10.98;68.79;99083.34;5075442;28;20055;-75
2022/11/22 01:23:20;;;;;;;28.08;17.98;;;;;;;10.95;69.03;99081.38;5080086;22;20044;-78
2022/11/22 01:26:07;;;;;;;18.85;12.20;;;;;;;10.94;69.12;99077.06;5051585;28;20427;-78
2022/11/22 01:28:52;;;;;;;28.50;17.73;;;;;;;10.93;68.87;99072.75;5042155;28;20052;-78
2022/11/22 01:31:37;;;;;;;26.95;17.48;;;;;;;10.93;69.17;99052.94;5052820;28;20504;-77
2022/11/22 01:34:21;;;;;;;26.75;18.30;;;;;;;10.83;69.53;99051.56;5032024;28;20115;-77
2022/11/22 01:37:06;;;;;;;19.83;12.23;;;;;;;10.86;69.83;99061.75;5052395;28;20052;-77
2022/11/22 01:39:51;;;;;;;26.65;17.02;;;;;;;10.87;69.17;99054.38;5041246;28;20509;-78
2022/11/22 01:42:52;;;;;;;20.15;13.23;;;;;;;10.95;69.12;99046.00;5052562;28;20052;-77
2022/11/22 01:45:41;;;;;;;24.55;15.70;;;;;;;10.89;69.31;99025.69;5048247;28;20040;-78
2022/11/22 01:48:37;;;;;;;22.08;15.35;;;;;;;10.97;69.38;99027.38;5051659;28;20068;-78
2022/11/22 01:51:31;;;;;;;24.38;16.65;;;;;;;10.93;69.67;99018.38;5032442;28;20406;-78
2022/11/22 01:54:24;;;;;;;27.52;16.83;;;;;;;10.94;69.62;99000.13;5033099;28;20048;-78
2022/11/22 01:57:13;;;;;;;25.85;16.45;;;;;;;10.94;69.66;98991.97;5030631;28;20108;-78
2022/11/22 02:00:03;;;;;;;22.15;15.25;;;;;;;10.93;69.81;98983.03;5043368;28;20048;-78
2022/11/22 02:02:55;;;;;;;24.48;16.10;;;;;;;10.93;69.72;98974.84;5056100;28;20064;-78
2022/11/22 02:05:40;;;;;;;22.50;15.25;;;;;;;10.94;69.97;98960.13;5052949;28;20052;-78
2022/11/22 02:08:40;;;;;;;23.00;14.45;;;;;;;10.86;69.86;98953.00;5042490;28;20040;-78
2022/11/22 02:11:26;;;;;;;25.60;15.30;;;;;;;10.89;69.99;98944.09;5051889;28;20048;-78
2022/11/22 02:14:11;;;;;;;22.63;13.73;;;;;;;10.88;70.22;98934.38;5052418;28;20048;-78
2022/11/22 02:16:56;;;;;;;22.10;14.13;;;;;;;10.92;69.72;98918.91;5041937;28;20055;-78
2022/11/22 02:19:44;;;;;;;20.77;11.23;;;;;;;10.87;70.13;98919.19;5052533;28;20075;-78
2022/11/22 02:22:54;;;;;;;19.98;12.50;;;;;;;10.95;69.72;98901.88;5051969;28;20055;-78
2022/11/22 02:26:00;;;;;;;16.27;12.13;;;;;;;10.93;70.16;98893.28;5052709;28;20044;-78
2022/11/22 02:28:45;;;;;;;19.85;12.60;;;;;;;10.92;70.07;98883.53;5052525;28;20056;-78
2022/11/22 02:31:33;;;;;;;13.80;9.48;;;;;;;10.93;69.80;98876.16;5052095;28;20052;-78
2022/11/22 02:34:18;;;;;;;16.77;10.48;;;;;;;10.87;70.24;98867.53;5052026;28;20047;-78
2022/11/22 02:37:03;;;;;;;16.95;10.27;;;;;;;10.90;70.24;98863.31;5038701;28;20044;-78
2022/11/22 02:39:52;;;;;;;11.02;7.43;;;;;;;10.91;70.37;98851.28;5057002;28;20052;-77
2022/11/22 02:42:36;;;;;;;18.92;9.95;;;;;;;10.93;70.30;98854.41;5058725;28;20048;-78
2022/11/22 02:45:21;;;;;;;12.50;7.30;;;;;;;10.96;70.08;98840.13;5044753;28;20332;-78
2022/11/22 02:48:07;;;;;;;11.20;7.90;;;;;;;11.02;69.98;98839.41;5059173;28;20052;-78
2022/11/22 02:50:51;;;;;;;18.55;10.38;;;;;;;11.03;69.99;98838.28;5047007;28;20067;-77
2022/11/22 02:53:36;;;;;;;;;;;;;;;11.04;69.90;98828.97;5059088;28;20043;-77
2022/11/22 02:56:21;;;;;;;15.15;9.98;;;;;;;11.11;69.79;98810.06;5053536;28;19913;-78
2022/11/22 02:59:05;;;;;;;15.43;7.43;;;;;;;11.08;69.80;98813.50;5047345;28;20071;-78
2022/11/22 03:01:50;;;;;;;16.38;9.05;;;;;;;11.21;69.96;98805.13;5045398;28;20051;-78
2022/11/22 03:04:35;;;;;;;15.80;10.50;;;;;;;11.22;69.93;98804.00;5058516;28;20044;-78
2022/11/22 03:07:19;;;;;;;11.98;7.30;;;;;;;11.24;69.53;98793.50;5058840;28;20052;-78
2022/11/22 03:10:04;;;;;;;9.82;6.40;;;;;;;11.24;70.10;98788.06;5058803;28;20044;-78
2022/11/22 03:12:49;;;;;;;;;;;;;;;11.18;69.89;98778.66;5048668;28;20052;-78
2022/11/22 03:15:34;;;;;;;14.98;7.28;;;;;;;11.04;70.57;98757.47;5058402;28;19913;-78
2022/11/22 03:18:19;;;;;;;10.73;7.25;;;;;;;11.10;70.21;98764.97;5059040;28;20047;-78
2022/11/22 03:21:06;;;;;;;9.18;5.85;;;;;;;11.14;70.57;98754.13;5058842;28;20052;-78
2022/11/22 03:23:51;;;;;;;10.70;6.93;;;;;;;11.21;70.25;98739.84;5045697;28;20513;-78
2022/11/22 03:26:36;;;;;;;7.60;5.00;;;;;;;11.12;70.19;98732.72;5058396;28;20520;-77
2022/11/22 03:29:20;;;;;;;8.65;6.53;;;;;;;11.14;70.53;98733.16;5059596;28;20409;-78
2022/11/22 03:32:05;;;;;;;11.65;6.03;;;;;;;11.10;70.57;98724.16;5058229;28;20517;-78
2022/11/22 03:34:50;;;;;;;6.68;4.10;;;;;;;11.13;70.70;98711.75;5047035;28;20051;-78
2022/11/22 03:37:34;;;;;;;12.32;6.20;;;;;;;11.11;70.89;98709.41;5044191;28;20044;-78
2022/11/22 03:40:19;;;;;;;8.30;5.63;;;;;;;11.12;71.21;98688.44;5048274;28;20040;-78
2022/11/22 03:43:04;;;;;;;9.00;5.45;;;;;;;11.13;70.79;98688.06;5058549;28;20051;-78
2022/11/22 03:45:49;;;;;;;;;;;;;;;11.17;70.67;98673.75;5058594;28;20052;-78
2022/11/22 03:48:34;;;;;;;8.80;4.43;;;;;;;11.21;71.41;98669.13;5048288;28;19913;-78
2022/11/22 03:51:19;;;;;;;5.75;3.30;;;;;;;11.18;71.26;98672.56;5055384;28;20056;-78
2022/11/22 03:54:03;;;;;;;7.60;4.15;;;;;;;11.19;71.22;98658.59;5041464;28;20064;-78
2022/11/22 03:56:48;;;;;;;;;;;;;;;11.15;71.51;98655.84;5055362;28;20052;-78
2022/11/22 03:59:33;;;;;;;8.20;3.80;;;;;;;11.19;71.67;98660.53;5055011;28;19917;-78
2022/11/22 04:02:17;;;;;;;4.97;3.10;;;;;;;11.20;71.64;98651.22;5055194;28;20536;-78
2022/11/22 04:05:02;;;;;;;5.35;2.53;;;;;;;11.15;71.60;98655.84;5055861;28;20048;-78
2022/11/22 04:07:47;;;;;;;4.25;2.30;;;;;;;11.18;71.86;98656.22;5044755;28;20044;-78
2022/11/22 04:10:32;;;;;;;3.03;1.33;;;;;;;11.27;71.94;98654.03;5042775;28;20048;-78
2022/11/22 04:13:17;;;;;;;1.15;0.88;;;;;;;11.35;71.27;98661.13;5041949;28;20064;-78
2022/11/22 04:16:01;;;;;;;;;;;;;;;11.42;71.12;98662.00;5045394;28;20044;-78
2022/11/22 04:18:46;;;;;;;2.83;1.08;;;;;;;11.44;71.40;98665.13;5054964;28;19920;-78
2022/11/22 04:21:33;;;;;;;1.52;0.73;;;;;;;11.38;71.87;98658.44;5039668;28;20048;-78
2022/11/22 04:27:21;;;;;;;3.00;0.70;;;;;;;11.36;72.57;98654.53;5020547;28;20060;-78
2022/11/22 04:30:07;;;;;;;1.33;0.88;;;;;;;11.41;72.15;98656.94;5048331;28;20524;-77
2022/11/22 04:32:51;;;;;;;1.98;0.88;;;;;;;11.43;72.13;98644.50;5041327;28;20047;-78
2022/11/22 04:35:36;;;;;;;;;;;;;;;11.49;72.30;98651.19;5054969;28;20433;-78
2022/11/22 04:38:21;;;;;;;5.57;1.08;;;;;;;11.51;72.01;98646.16;5043474;28;20293;-77
2022/11/22 04:41:06;;;;;;;1.20;1.10;;;;;;;11.56;71.28;98647.78;5041830;28;20532;-78
2022/11/22 04:46:55;;;;;;;3.13;0.77;;;;;;;11.57;71.23;98641.19;5042488;28;20052;-78
2022/11/22 04:49:39;;;;;;;;;;;;;;;11.61;70.88;98639.28;5055030;28;20056;-77
2022/11/22 04:55:27;;;;;;;2.58;1.00;;;;;;;11.67;71.30;98629.63;5050233;28;20059;-78
2022/11/22 04:58:13;;;;;;;2.72;0.88;;;;;;;11.66;71.34;98625.31;5020187;28;20060;-78
2022/11/22 05:00:57;;;;;;;2.95;0.70;;;;;;;11.66;71.00;98619.09;5036976;28;20052;-78
2022/11/22 05:03:42;;;;;;;3.05;1.52;;;;;;;11.64;71.40;98622.19;5048748;28;20048;-78
2022/11/22 05:06:26;;;;;;;5.82;0.57;;;;;;;11.65;71.44;98618.31;5048100;28;20072;-78
2022/11/22 05:09:11;;;;;;;1.23;0.70;;;;;;;11.69;71.19;98615.63;5053786;28;20500;-77
2022/11/22 05:11:55;;;;;;;0.68;0.68;;;;;;;11.80;71.56;98616.53;5053704;28;20052;-78
2022/11/22 05:14:40;;;;;;;1.60;0.57;;;;;;;11.83;71.08;98616.59;5040073;28;20422;-78
2022/11/22 05:17:24;;;;;;;0.80;0.60;;;;;;;11.85;70.92;98611.53;5053455;28;20052;-78
2022/11/22 05:20:09;;;;;;;2.22;0.50;;;;;;;11.87;71.40;98613.91;5041425;28;20056;-77
2022/11/22 05:25:58;;;;;;;3.65;0.73;;;;;;;11.82;71.60;98616.97;5060384;28;20059;-78
2022/11/22 05:28:43;;;;;;;;;;;;;;;11.99;71.35;98600.78;5052870;28;20068;-78
2022/11/22 05:31:27;;;;;;;1.83;0.82;;;;;;;12.16;70.84;98588.47;5067364;28;19920;-78
2022/11/22 05:34:12;;;;;;;2.45;0.60;;;;;;;12.16;70.21;98588.47;5035706;28;20047;-77
2022/11/22 05:36:58;;;;;;;0.47;0.40;;;;;;;12.24;70.86;98598.25;5040252;28;20048;-78
2022/11/22 05:39:42;;;;;;;;;;;;;;;12.19;70.59;98603.28;5038698;28;20044;-78
2022/11/22 05:42:27;;;;;;;5.07;0.47;;;;;;;12.19;70.74;98601.31;5049044;28;19913;-79
2022/11/22 05:45:11;;;;;;;3.95;0.70;;;;;;;12.07;71.02;98595.38;5044492;28;20040;-79
2022/11/22 05:47:56;;;;;;;1.35;0.55;;;;;;;12.00;70.93;98594.16;5042172;28;20055;-79
2022/11/22 05:50:41;;;;;;;;;;;;;;;11.88;71.82;98591.75;5056729;28;20059;-79
2022/11/22 05:53:25;;;;;;;0.95;0.70;;;;;;;11.95;71.76;98580.91;5058768;28;19916;-79
2022/11/22 05:56:13;;;;;;;4.63;0.80;;;;;;;12.02;70.18;98571.22;5057574;28;20516;-79
2022/11/22 05:58:57;;;;;;;3.75;0.95;;;;;;;11.98;70.48;98572.00;5036005;28;20416;-79
2022/11/22 06:01:42;;;;;;;1.80;0.85;;;;;;;12.07;70.18;98568.16;5045731;28;20055;-79
2022/11/22 06:04:26;;;;;;;1.95;0.95;;;;;;;11.75;69.93;98563.22;5043665;28;20544;-79
2022/11/22 06:07:11;;;;;;;1.63;0.70;;;;;;;11.76;70.31;98553.88;5041397;28;20048;-78
2022/11/22 06:09:56;;;;;;;;;;;;;;;11.67;70.80;98561.56;5047762;28;20052;-78
2022/11/22 06:12:41;;;;;;;2.10;0.85;;;;;;;11.69;70.18;98539.38;5061048;28;19917;-79
2022/11/22 06:15:26;;;;;;;;;;;;;;;11.74;70.09;98558.91;5047314;28;20032;-79
2022/11/22 06:18:10;;;;;;;1.55;0.60;;;;;;;11.84;69.67;98558.22;5047531;28;20385;-79
2022/11/22 06:20:58;;;;;;;6.30;0.80;;;;;;;11.82;68.90;98551.59;5044119;28;20048;-79
2022/11/22 06:23:43;;;;;;;3.25;0.90;;;;;;;11.75;69.14;98557.75;5021504;28;20048;-79
2022/11/22 06:26:28;;;;;;;1.30;0.75;;;;;;;11.67;69.05;98542.50;5024857;28;20516;-79
2022/11/22 06:29:12;;;;;;;1.27;0.80;;;;;;;11.49;69.45;98534.16;5040834;28;20040;-80
2022/11/22 06:31:57;;;;;;;;;;;;;;;11.38;70.10;98536.00;5054104;28;20048;-79
2022/11/22 06:34:42;;;;;;;5.15;1.08;;;;;;;11.40;70.17;98544.56;5054378;28;19912;-79
2022/11/22 06:37:27;;;;;;;3.97;1.42;;;;;;;11.44;69.78;98542.66;5045296;28;20044;-79
2022/11/22 06:40:12;;;;;;;5.18;1.50;;;;;;;11.28;69.76;98538.59;5055243;28;20063;-80
2022/11/22 06:42:57;;;;;;;2.97;1.17;;;;;;;11.17;70.22;98526.84;5044764;28;20052;-79
2022/11/22 06:45:41;;;;;;;2.17;1.10;;;;;;;11.28;70.08;98522.28;5044019;28;20044;-80
2022/11/22 06:48:29;;;;;;;1.27;0.70;;;;;;;11.23;69.60;98526.13;5055320;28;20053;-80
2022/11/22 06:51:19;;;;;;;2.20;1.05;;;;;;;11.23;69.74;98514.44;5054566;28;20044;-80
2022/11/22 06:54:04;;;;;;;1.95;0.80;;;;;;;11.23;69.28;98517.16;5055203;28;20111;-79
2022/11/22 06:56:49;;;;;;;;;;;;;;;10.95;69.55;98506.78;5053003;28;20056;-79
2022/11/22 06:59:34;;;;;;;2.17;1.30;;;;;;;10.84;70.40;98501.22;5046034;28;20589;-80
2022/11/22 07:02:19;;;;;;;;;;;;;;;10.84;71.28;98500.44;5057083;28;20056;-80
2022/11/22 07:05:03;;;;;;;1.27;0.60;;;;;;;10.79;70.54;98493.38;5055257;28;19920;-80
2022/11/22 07:07:48;;;;;;;2.25;0.90;;;;;;;10.72;70.70;98488.63;5044984;28;20145;-80
2022/11/22 07:10:35;;;;;;;3.13;1.95;;;;;;;10.56;71.23;98493.50;5051265;28;20044;-80
2022/11/22 07:13:20;;;;;;;3.97;1.02;;;;;;;10.54;71.06;98500.47;5035739;28;20048;-80
2022/11/22 07:16:07;;;;;;;3.67;1.27;;;;;;;10.49;71.13;98495.34;5040831;28;20055;-80
2022/11/22 07:18:52;;;;;;;4.60;1.52;;;;;;;10.41;71.55;98493.69;5040488;28;20053;-80
2022/11/22 07:21:36;;;;;;;1.73;0.90;;;;;;;10.42;71.51;98487.09;5037290;28;20048;-80
2022/11/22 07:24:21;;;;;;;;;;;;;;;10.49;71.25;98498.06;5060321;23;20072;-78
2022/11/22 07:27:06;;;;;;;2.15;1.58;;;;;;;10.49;71.00;98498.84;5040363;28;19917;-77
2022/11/22 07:29:50;;;;;;;5.68;0.77;;;;;;;10.43;71.32;98500.31;5035360;28;20052;-77
2022/11/22 07:32:35;;;;;;;1.17;0.88;;;;;;;10.58;71.29;98496.63;5050639;28;20068;-77
2022/11/22 07:35:19;;;;;;;4.00;1.00;;;;;;;10.61;71.20;98484.25;5029622;28;20044;-78
2022/11/22 07:38:04;;;;;;;6.80;2.33;;;;;;;10.77;71.21;98492.22;5037563;28;20049;-77
2022/11/22 07:40:48;;;;;;;3.67;1.30;;;;;;;10.86;70.33;98481.81;5027155;28;20053;-78
2022/11/22 07:43:34;;;;;;;12.77;6.68;;;;;;;10.73;70.86;98500.31;5035106;28;20044;-79
2022/11/22 07:46:30;;;;;;;9.07;4.53;;;;;;;10.66;70.47;98492.88;5039089;28;20422;-78
2022/11/22 07:49:15;;;;;;;6.28;2.28;;;;;;;10.63;70.77;98495.53;5024113;28;20417;-78
2022/11/22 07:51:59;;;;;;;;;;;;;;;10.54;70.66;98497.75;5015618;28;20406;-76
2022/11/22 07:54:44;;;;;;;1.20;1.00;;;;;;;10.54;70.46;98495.81;5016066;28;20370;-77
2022/11/22 07:57:29;;;;;;;3.25;2.08;;;;;;;10.57;71.08;98494.28;5016064;28;20057;-76
2022/11/22 08:00:13;;;;;;;;;;;;;;;10.49;70.74;98487.19;5016128;28;20049;-79
2022/11/22 08:02:58;;;;;;;0.80;0.57;;;;;;;10.42;71.60;98492.53;5016025;28;20302;-76
2022/11/22 08:05:43;;;;;;;1.67;0.95;;;;;;;10.41;72.02;98483.63;5024882;28;20074;-77
2022/11/22 08:08:28;;;;;;;1.38;0.55;;;;;;;10.38;72.46;98478.13;5029025;28;20052;-77
2022/11/22 08:11:13;;;;;;;;;;;;;;;10.38;73.02;98469.97;5029716;28;20405;-77
2022/11/22 08:13:57;;;;;;;1.25;0.75;;;;;;;10.43;73.08;98458.78;5027426;28;19913;-78
2022/11/22 08:16:42;;;;;;;4.82;1.10;;;;;;;10.50;72.79;98456.94;5030547;28;20052;-78
2022/11/22 08:19:27;;;;;;;1.60;0.77;;;;;;;10.58;72.57;98453.16;5039228;28;20053;-77
2022/11/22 08:22:11;;;;;;;1.63;1.15;;;;;;;10.55;72.42;98448.47;5029979;28;20056;-77
2022/11/22 08:24:56;;;;;;;0.93;0.50;;;;;;;10.53;72.35;98431.72;5034350;28;20077;-79
2022/11/22 08:27:42;;;;;;;2.28;0.60;;;;;;;10.60;72.98;98433.75;5037637;28;20044;-75
2022/11/22 08:30:27;;;;;;;1.65;0.88;;;;;;;10.60;73.38;98439.19;5036883;28;20048;-76
2022/11/22 08:33:11;;;;;;;0.80;0.50;;;;;;;10.63;72.95;98430.28;5014262;28;20052;-77
2022/11/22 08:35:56;;;;;;;3.00;1.23;;;;;;;10.68;73.69;98429.97;5021434;28;20082;-76
2022/11/22 08:38:41;;;;;;;0.95;0.35;;;;;;;10.73;73.20;98426.91;5025273;28;20052;-77
2022/11/22 08:41:26;;;;;;;;;;;;;;;10.74;72.18;98423.03;5034029;28;20064;-78
2022/11/22 08:44:10;;;;;;;2.58;0.80;;;;;;;10.83;70.85;98433.59;5026237;28;19913;-76
2022/11/22 08:46:54;;;;;;;3.75;2.00;;;;;;;10.80;70.57;98427.00;5034471;28;20056;-76
2022/11/22 08:49:39;;;;;;;3.70;1.60;;;;;;;10.81;71.32;98419.63;5034279;28;20053;-76
2022/11/22 08:52:23;;;;;;;2.53;0.80;;;;;;;10.83;70.83;98412.66;5033278;28;20053;-77
2022/11/22 08:55:08;;;;;;;2.33;0.95;;;;;;;10.88;70.37;98403.38;5037314;28;20045;-78
2022/11/22 08:57:57;;;;;;;;;;;;;;;10.92;70.04;98402.25;5039339;28;20056;-77
2022/11/22 09:00:42;;;;;;;2.70;0.75;;;;;;;11.06;69.72;98391.53;5032937;28;19917;-78
2022/11/22 09:03:26;;;;;;;1.00;0.50;;;;;;;11.00;68.65;98387.56;5017149;28;20045;-77
2022/11/22 09:06:14;;;;;;;5.78;0.60;;;;;;;11.18;70.26;98387.72;5021616;28;20049;-77
2022/11/22 09:08:58;;;;;;;2.22;0.88;;;;;;;11.20;68.48;98371.03;5026136;28;20125;-78
2022/11/22 09:11:42;;;;;;;1.02;0.70;;;;;;;11.45;69.07;98369.28;5036886;28;20386;-78
2022/11/22 09:14:27;;;;;;;1.73;0.70;;;;;;;11.59;68.95;98381.03;5023031;28;20418;-77
2022/11/22 09:17:13;;;;;;;0.80;0.38;;;;;;;11.47;68.24;98378.66;5013281;28;20057;-78
2022/11/22 09:19:57;;;;;;;;;;;;;;;11.43;68.10;98377.03;5036214;28;20537;-78
2022/11/22 09:22:42;;;;;;;1.23;0.40;;;;;;;11.43;67.91;98347.88;5048760;28;19916;-79
2022/11/22 09:25:26;;;;;;;2.83;0.75;;;;;;;11.49;67.46;98340.16;5024566;28;20069;-77
2022/11/22 09:28:11;;;;;;;1.10;0.63;;;;;;;11.45;67.89;98326.53;5013999;28;20053;-77
2022/11/22 09:31:03;;;;;;;;;;;;;;;11.37;68.10;98319.50;5015911;28;20044;-78
2022/11/22 09:33:49;;;;;;;1.65;0.60;;;;;;;11.39;67.89;98308.97;5013689;28;19913;-76
2022/11/22 09:36:33;;;;;;;1.50;0.60;;;;;;;11.30;67.96;98297.66;5017548;28;20412;-76
2022/11/22 09:39:18;;;;;;;0.60;0.40;;;;;;;11.46;67.07;98300.09;5013261;28;20061;-77
2022/11/22 09:42:29;;;;;;;2.22;0.70;;;;;;;11.61;66.20;98312.63;5018484;28;20061;-77
2022/11/22 09:45:34;;;;;;;1.65;0.75;;;;;;;11.52;65.84;98314.91;5025272;28;20516;-76
2022/11/22 09:48:59;;;;;;;0.82;0.43;;;;;;;11.69;65.64;98308.75;5011863;28;20057;-76
2022/11/22 09:52:01;;;;;;;5.15;2.88;;;;;;;11.27;66.69;98295.72;5018619;28;20053;-76
2022/11/22 09:54:51;;;;;;;2.78;1.92;;;;;;;11.33;68.01;98307.00;5028815;28;20048;-76
2022/11/22 09:57:38;;;;;;;5.68;2.50;;;;;;;11.17;67.42;98307.31;5026597;28;20036;-76
2022/11/22 10:00:26;;;;;;;1.42;0.75;;;;;;;11.11;67.96;98303.38;5026387;28;20060;-76
2022/11/22 10:03:17;;;;;;;3.80;1.58;;;;;;;11.02;68.46;98311.81;5030982;28;20044;-80
2022/11/22 10:06:07;;;;;;;4.20;3.08;;;;;;;11.40;68.61;98312.50;5034412;28;20048;-78
2022/11/22 10:09:19;;;;;;;5.95;2.47;;;;;;;11.23;68.05;98307.69;5048856;28;20044;-81
2022/11/22 10:12:30;;;;;;;13.73;7.28;;;;;;;11.22;67.00;98298.00;5033909;28;20053;-80
2022/11/22 10:15:24;;;;;;;1.77;0.95;;;;;;;11.23;67.51;98300.31;5034961;28;20533;-79
2022/11/22 10:18:16;;;;;;;2.35;1.13;;;;;;;11.35;67.70;98282.91;5033750;28;20056;-80
2022/11/22 10:21:01;;;;;;;1.60;0.75;;;;;;;11.44;66.53;98277.91;5031922;28;20414;-79
2022/11/22 10:23:46;;;;;;;1.33;1.00;;;;;;;11.33;66.83;98279.78;5033287;28;20053;-78
2022/11/22 10:26:33;;;;;;;3.47;1.13;;;;;;;11.63;67.93;98283.06;5031851;28;20537;-77
2022/11/22 10:29:30;;;;;;;1.67;1.02;;;;;;;11.46;66.76;98272.88;5023531;28;20044;-79
2022/11/22 10:32:32;;;;;;;1.08;0.95;;;;;;;11.23;68.04;98281.28;5023734;28;20048;-77
2022/11/22 10:35:21;;;;;;;1.10;0.82;;;;;;;11.20;67.40;98290.22;5025346;28;20052;-77
2022/11/22 10:38:17;;;;;;;4.78;2.40;;;;;;;11.29;67.13;98287.16;5029130;28;20526;-77
2022/11/22 10:41:02;;;;;;;2.13;1.35;;;;;;;11.22;67.13;98295.28;5026592;28;20053;-78
2022/11/22 10:44:00;;;;;;;5.35;2.40;;;;;;;11.15;67.59;98296.00;5032777;28;20048;-78
2022/11/22 10:47:12;;;;;;;2.40;1.30;;;;;;;11.25;67.27;98284.41;5037946;28;20056;-78
2022/11/22 10:50:05;;;;;;;4.30;3.10;;;;;;;11.15;67.72;98282.41;5032534;28;20049;-77
2022/11/22 10:53:05;;;;;;;3.42;1.17;;;;;;;11.01;66.95;98266.00;5029038;28;20049;-78
2022/11/22 10:55:54;;;;;;;2.35;0.47;;;;;;;10.98;68.46;98253.91;5029237;28;20498;-77
2022/11/22 10:58:44;;;;;;;0.73;0.55;;;;;;;10.88;68.23;98253.84;5032413;28;20048;-79
2022/11/22 11:01:41;;;;;;;0.73;0.60;;;;;;;10.92;68.61;98244.53;5034960;28;20041;-76
2022/11/22 11:04:34;;;;;;;1.33;0.50;;;;;;;10.65;67.80;98241.25;5036968;28;20545;-77
2022/11/22 11:07:22;;;;;;;1.27;1.00;;;;;;;10.60;69.53;98243.53;5040629;28;20044;-76
2022/11/22 11:10:18;;;;;;;5.57;0.70;;;;;;;10.66;69.77;98236.59;5038621;28;20045;-77
2022/11/22 11:13:29;;;;;;;3.15;1.10;;;;;;;10.68;69.86;98231.56;5036636;28;20434;-76
2022/11/22 11:16:22;;;;;;;3.55;2.33;;;;;;;10.66;69.15;98240.09;5039099;28;20405;-76
2022/11/22 11:19:10;;;;;;;7.53;2.20;;;;;;;10.61;68.68;98240.44;5037184;28;20049;-77
2022/11/22 11:22:01;;;;;;;2.10;0.70;;;;;;;10.57;68.67;98239.63;5015847;28;20049;-76
2022/11/22 11:24:47;;;;;;;6.38;1.27;;;;;;;10.53;68.83;98233.38;5029795;28;20554;-76
2022/11/22 11:27:32;;;;;;;2.25;1.85;;;;;;;10.49;68.73;98229.06;5016081;28;20053;-76
2022/11/22 11:30:17;;;;;;;1.83;1.40;;;;;;;10.49;69.27;98232.56;5033828;28;20053;-76
2022/11/22 11:33:12;;;;;;;;;;;;;;;10.52;68.86;98239.19;5020014;28;20521;-76
2022/11/22 11:36:19;;;;;;;1.90;0.50;;;;;;;10.49;68.80;98245.38;5033354;28;19913;-77
2022/11/22 11:39:03;;;;;;;;;;;;;;;10.49;69.32;98253.53;5037920;28;20284;-77
2022/11/22 11:41:49;;;;;;;2.58;0.50;;;;;;;10.50;69.51;98255.09;5035436;28;19917;-76
2022/11/22 11:44:36;;;;;;;2.22;0.38;;;;;;;10.47;68.73;98259.31;5034982;28;20052;-77
2022/11/22 11:47:41;;;;;;;1.60;1.33;;;;;;;10.43;68.60;98257.72;5029551;28;20048;-78
2022/11/22 11:50:29;;;;;;;11.23;7.97;;;;;;;10.36;69.07;98260.41;5035443;28;20441;-77
2022/11/22 11:53:25;;;;;;;1.48;1.13;;;;;;;10.34;69.53;98281.72;5039128;28;20044;-78
2022/11/22 11:56:31;;;;;;;78.10;42.45;;;;;;;10.40;70.15;98288.38;5037767;28;20048;-77
2022/11/22 11:59:21;;;;;;;4.47;3.75;;;;;;;10.35;69.00;98291.44;5027784;28;20048;-76
2022/11/22 12:02:22;;;;;;;1.50;0.95;;;;;;;10.52;70.54;98288.09;5034381;28;20056;-76
2022/11/22 12:05:13;;;;;;;5.38;1.50;;;;;;;10.41;68.73;98282.56;5035016;28;20064;-78
2022/11/22 12:07:59;;;;;;;1.00;0.50;;;;;;;10.56;70.50;98287.00;5039105;28;20444;-76
2022/11/22 12:10:53;;;;;;;10.80;3.60;;;;;;;12.42;81.30;98299.34;5036840;28;20469;-76
2022/11/22 12:13:46;;;;;;;8.38;3.08;;;;;;;13.88;74.00;98307.44;5033684;28;20068;-76
2022/11/22 12:16:36;;;;;;;7.95;3.63;;;;;;;15.04;68.04;98311.50;5033886;28;20060;-77
2022/11/22 12:19:43;;;;;;;8.02;3.38;;;;;;;15.75;64.88;98328.06;5034917;28;20052;-77
2022/11/22 12:23:03;;;;;;;8.15;3.05;;;;;;;16.05;63.54;98341.03;5033651;28;20052;-77
2022/11/22 12:25:52;;;;;;;6.32;2.88;;;;;;;16.34;62.53;98340.72;5042064;28;20422;-78
2022/11/22 12:28:38;;;;;;;5.10;2.80;;;;;;;16.41;61.36;98351.56;5034188;28;20048;-77
2022/11/22 12:31:29;;;;;;;6.63;3.30;;;;;;;16.51;61.23;98359.66;5035507;28;20158;-78
2022/11/22 12:34:26;;;;;;;10.48;5.80;;;;;;;14.90;54.64;98347.97;5027175;28;20074;-76
2022/11/22 12:37:13;;;;;;;2.97;1.77;;;;;;;13.59;58.47;98355.91;5034426;28;20044;-76
2022/11/22 12:40:04;;;;;;;5.13;2.67;;;;;;;12.80;60.37;98344.19;5035843;28;20052;-77
2022/11/22 12:42:56;;;;;;;6.15;2.42;;;;;;;12.31;62.60;98339.41;5034889;28;20052;-82
2022/11/22 12:45:48;;;;;;;15.52;6.30;;;;;;;11.84;64.27;98342.31;5039083;28;20049;-81
2022/11/22 12:48:36;;;;;;;35.22;16.10;;;;;;;11.53;64.79;98351.81;5037589;28;20044;-80
2022/11/22 12:51:27;;;;;;;24.45;7.78;;;;;;;11.52;66.35;98347.56;5041029;28;20048;-79
2022/11/22 12:54:18;;;;;;;13.93;4.18;;;;;;;11.43;66.75;98347.88;5036281;28;20058;-79
2022/11/22 12:57:14;;;;;;;5.75;1.60;;;;;;;11.44;66.23;98362.28;5036924;28;20053;-78
2022/11/22 13:00:12;;;;;;;3.30;2.10;;;;;;;11.30;66.69;98351.28;5039666;28;20044;-80
2022/11/22 13:03:04;;;;;;;13.05;2.42;;;;;;;11.35;67.09;98350.94;5035482;28;20520;-79
2022/11/22 13:05:55;;;;;;;3.63;2.20;;;;;;;11.28;67.03;98364.47;5035861;28;20536;-78
2022/11/22 13:08:48;;;;;;;8.05;2.15;;;;;;;11.22;66.73;98366.00;5036450;28;20052;-78
2022/11/22 13:11:38;;;;;;;2.20;1.20;;;;;;;11.09;66.07;98373.66;5030597;28;20048;-78
2022/11/22 13:14:42;;;;;;;2.60;1.30;;;;;;;10.90;66.57;98371.94;5033129;28;20049;-79
2022/11/22 13:17:33;;;;;;;5.20;1.67;;;;;;;10.76;67.17;98377.25;5030452;28;20048;-79
2022/11/22 13:20:29;;;;;;;5.25;3.13;;;;;;;10.70;67.54;98378.75;5034135;28;20442;-79
2022/11/22 13:23:53;;;;;;;8.43;3.55;;;;;;;10.71;68.41;98369.44;5055813;22;20052;-80
2022/11/22 13:27:07;;;;;;;4.13;1.52;;;;;;;10.86;68.07;98376.56;5030149;28;20532;-79